Decoded Metar for LFMO (ORANGE in FRANCE) (IATA:N/A) | Meteo·Mobile Aviation Weather
aviador You're here:

LFMO Decoded Metar

ORANGE in FRANCE
Report Time2019-04-20 10:30:00
UTC Time2019-04-20 10:44:29
Flight Rules vfr VFR
WindVRB at 03 kt
Visibility9999 m
Phenomena:N/A
Clouds:N/A
Expected CloudBase > 6,400 ft AGL from Temp-Dew spread
CeilingNone
Temp22°C (ISA +7)
Dew Point06°C (36% RH)
AAT20.1°C
QNH1023 hPa
Density Alt830 ft
Elevation180 ft
Report Wrong Elevation
Raw Report
LFMO 201030Z AUTO VRB03KT CAVOK 22/06 Q1023 TEMPO SCT075TCU=

Extra information for LFMO:More info

Metar Taf Metar & Taf Last 4 Metars F.Rules Stats Wind Profile Meteogram Temp Stats Airport Information Weather charts Add Link Nearby VenuesMetar ALERT Operation Metar Decoded Social comments